sensor_id;sensor_type;location;lat;lon;timestamp;P1;durP1;ratioP1;P2;durP2;ratioP2
58756;SDS011;44527;47.460;19.016;2022-08-03T00:01:34;2.80;;;1.77;;
58756;SDS011;44527;47.460;19.016;2022-08-03T00:04:37;4.55;;;1.77;;
58756;SDS011;44527;47.460;19.016;2022-08-03T00:07:39;4.10;;;1.45;;
58756;SDS011;44527;47.460;19.016;2022-08-03T00:10:42;2.58;;;1.55;;
58756;SDS011;44527;47.460;19.016;2022-08-03T00:13:44;3.03;;;1.65;;
58756;SDS011;44527;47.460;19.016;2022-08-03T00:16:47;2.55;;;1.52;;
58756;SDS011;44527;47.460;19.016;2022-08-03T00:19:49;3.85;;;1.80;;
58756;SDS011;44527;47.460;19.016;2022-08-03T00:22:51;6.20;;;1.75;;
58756;SDS011;44527;47.460;19.016;2022-08-03T00:25:53;3.42;;;1.70;;
58756;SDS011;44527;47.460;19.016;2022-08-03T00:28:56;4.85;;;1.52;;
58756;SDS011;44527;47.460;19.016;2022-08-03T00:31:58;3.83;;;1.62;;
58756;SDS011;44527;47.460;19.016;2022-08-03T00:35:01;3.53;;;1.45;;
58756;SDS011;44527;47.460;19.016;2022-08-03T00:38:13;6.50;;;1.73;;
58756;SDS011;44527;47.460;19.016;2022-08-03T00:41:15;3.90;;;2.05;;
58756;SDS011;44527;47.460;19.016;2022-08-03T00:44:17;2.25;;;1.80;;
58756;SDS011;44527;47.460;19.016;2022-08-03T00:47:20;2.22;;;1.85;;
58756;SDS011;44527;47.460;19.016;2022-08-03T00:50:22;2.12;;;1.70;;
58756;SDS011;44527;47.460;19.016;2022-08-03T00:53:26;5.60;;;2.30;;
58756;SDS011;44527;47.460;19.016;2022-08-03T00:56:29;3.00;;;2.22;;
58756;SDS011;44527;47.460;19.016;2022-08-03T00:59:31;2.58;;;1.62;;
58756;SDS011;44527;47.460;19.016;2022-08-03T01:02:34;5.20;;;2.03;;
58756;SDS011;44527;47.460;19.016;2022-08-03T01:05:39;4.25;;;1.95;;
58756;SDS011;44527;47.460;19.016;2022-08-03T01:08:54;3.37;;;2.00;;
58756;SDS011;44527;47.460;19.016;2022-08-03T01:12:05;3.67;;;2.15;;
58756;SDS011;44527;47.460;19.016;2022-08-03T01:15:36;5.25;;;2.30;;
58756;SDS011;44527;47.460;19.016;2022-08-03T01:28:44;2.92;;;2.03;;
58756;SDS011;44527;47.460;19.016;2022-08-03T01:31:53;5.43;;;2.10;;
58756;SDS011;44527;47.460;19.016;2022-08-03T01:35:43;4.47;;;1.85;;
58756;SDS011;44527;47.460;19.016;2022-08-03T01:38:51;2.47;;;2.00;;
58756;SDS011;44527;47.460;19.016;2022-08-03T01:41:59;4.75;;;2.22;;
58756;SDS011;44527;47.460;19.016;2022-08-03T01:45:07;4.57;;;1.92;;
58756;SDS011;44527;47.460;19.016;2022-08-03T01:48:14;3.05;;;2.00;;
58756;SDS011;44527;47.460;19.016;2022-08-03T01:51:18;3.83;;;2.08;;
58756;SDS011;44527;47.460;19.016;2022-08-03T01:54:23;3.92;;;2.08;;
58756;SDS011;44527;47.460;19.016;2022-08-03T01:57:27;4.87;;;2.00;;
58756;SDS011;44527;47.460;19.016;2022-08-03T02:00:31;5.12;;;2.42;;
58756;SDS011;44527;47.460;19.016;2022-08-03T02:03:35;3.85;;;2.05;;
58756;SDS011;44527;47.460;19.016;2022-08-03T02:06:59;3.47;;;2.15;;
58756;SDS011;44527;47.460;19.016;2022-08-03T02:10:05;7.03;;;2.30;;
58756;SDS011;44527;47.460;19.016;2022-08-03T02:13:08;4.82;;;2.33;;
58756;SDS011;44527;47.460;19.016;2022-08-03T02:16:11;4.85;;;2.45;;
58756;SDS011;44527;47.460;19.016;2022-08-03T02:19:15;4.62;;;2.42;;
58756;SDS011;44527;47.460;19.016;2022-08-03T02:22:19;3.10;;;2.40;;
58756;SDS011;44527;47.460;19.016;2022-08-03T02:25:22;3.15;;;2.33;;
58756;SDS011;44527;47.460;19.016;2022-08-03T02:28:27;2.60;;;2.12;;
58756;SDS011;44527;47.460;19.016;2022-08-03T02:31:33;3.60;;;2.45;;
58756;SDS011;44527;47.460;19.016;2022-08-03T02:34:39;3.62;;;2.40;;
58756;SDS011;44527;47.460;19.016;2022-08-03T02:37:46;3.22;;;2.10;;
58756;SDS011;44527;47.460;19.016;2022-08-03T02:40:51;7.20;;;2.72;;
58756;SDS011;44527;47.460;19.016;2022-08-03T02:43:57;3.87;;;2.40;;
58756;SDS011;44527;47.460;19.016;2022-08-03T02:47:08;4.50;;;2.60;;
58756;SDS011;44527;47.460;19.016;2022-08-03T02:50:13;3.45;;;2.42;;
58756;SDS011;44527;47.460;19.016;2022-08-03T02:53:18;5.43;;;2.50;;
58756;SDS011;44527;47.460;19.016;2022-08-03T02:56:23;6.35;;;2.95;;
58756;SDS011;44527;47.460;19.016;2022-08-03T02:59:27;3.85;;;2.47;;
58756;SDS011;44527;47.460;19.016;2022-08-03T03:02:32;3.35;;;2.62;;
58756;SDS011;44527;47.460;19.016;2022-08-03T03:05:36;2.75;;;2.45;;
58756;SDS011;44527;47.460;19.016;2022-08-03T03:08:57;5.47;;;2.72;;
58756;SDS011;44527;47.460;19.016;2022-08-03T03:12:01;5.12;;;2.87;;
58756;SDS011;44527;47.460;19.016;2022-08-03T03:15:04;5.85;;;2.53;;
58756;SDS011;44527;47.460;19.016;2022-08-03T03:18:07;4.22;;;2.58;;
58756;SDS011;44527;47.460;19.016;2022-08-03T03:21:11;5.28;;;2.30;;
58756;SDS011;44527;47.460;19.016;2022-08-03T03:24:19;3.50;;;2.67;;
58756;SDS011;44527;47.460;19.016;2022-08-03T03:27:21;4.00;;;2.70;;
58756;SDS011;44527;47.460;19.016;2022-08-03T03:30:24;5.12;;;3.15;;
58756;SDS011;44527;47.460;19.016;2022-08-03T03:33:27;4.18;;;2.58;;
58756;SDS011;44527;47.460;19.016;2022-08-03T03:36:29;5.18;;;2.60;;
58756;SDS011;44527;47.460;19.016;2022-08-03T03:39:32;6.78;;;2.95;;
58756;SDS011;44527;47.460;19.016;2022-08-03T03:42:34;4.35;;;2.35;;
58756;SDS011;44527;47.460;19.016;2022-08-03T03:45:38;11.60;;;2.72;;
58756;SDS011;44527;47.460;19.016;2022-08-03T03:48:43;6.35;;;3.20;;
58756;SDS011;44527;47.460;19.016;2022-08-03T03:51:45;9.27;;;3.62;;
58756;SDS011;44527;47.460;19.016;2022-08-03T03:54:48;5.60;;;3.00;;
58756;SDS011;44527;47.460;19.016;2022-08-03T03:57:50;5.93;;;3.30;;
58756;SDS011;44527;47.460;19.016;2022-08-03T04:00:52;4.62;;;2.80;;
58756;SDS011;44527;47.460;19.016;2022-08-03T04:03:55;5.90;;;2.85;;
58756;SDS011;44527;47.460;19.016;2022-08-03T04:06:57;8.98;;;3.45;;
58756;SDS011;44527;47.460;19.016;2022-08-03T04:10:19;4.03;;;2.95;;
58756;SDS011;44527;47.460;19.016;2022-08-03T04:13:46;25.58;;;3.42;;
58756;SDS011;44527;47.460;19.016;2022-08-03T04:16:51;5.10;;;2.95;;
58756;SDS011;44527;47.460;19.016;2022-08-03T04:19:57;8.80;;;3.58;;
58756;SDS011;44527;47.460;19.016;2022-08-03T04:23:02;5.50;;;3.20;;
58756;SDS011;44527;47.460;19.016;2022-08-03T04:26:15;7.43;;;3.15;;
58756;SDS011;44527;47.460;19.016;2022-08-03T04:29:22;5.18;;;2.90;;
58756;SDS011;44527;47.460;19.016;2022-08-03T04:32:26;4.00;;;3.00;;
58756;SDS011;44527;47.460;19.016;2022-08-03T04:35:31;8.70;;;3.20;;
58756;SDS011;44527;47.460;19.016;2022-08-03T04:39:10;5.25;;;3.15;;
58756;SDS011;44527;47.460;19.016;2022-08-03T04:42:17;4.47;;;2.87;;
58756;SDS011;44527;47.460;19.016;2022-08-03T04:45:23;6.97;;;3.12;;
58756;SDS011;44527;47.460;19.016;2022-08-03T04:48:27;3.78;;;2.65;;
58756;SDS011;44527;47.460;19.016;2022-08-03T04:51:29;4.25;;;2.75;;
58756;SDS011;44527;47.460;19.016;2022-08-03T04:54:39;7.05;;;2.62;;
58756;SDS011;44527;47.460;19.016;2022-08-03T04:57:43;7.07;;;2.20;;
58756;SDS011;44527;47.460;19.016;2022-08-03T05:00:45;6.00;;;2.70;;
58756;SDS011;44527;47.460;19.016;2022-08-03T05:03:51;7.87;;;2.67;;
58756;SDS011;44527;47.460;19.016;2022-08-03T05:06:54;6.03;;;2.47;;
58756;SDS011;44527;47.460;19.016;2022-08-03T05:09:56;6.95;;;2.53;;
58756;SDS011;44527;47.460;19.016;2022-08-03T05:13:04;4.47;;;2.55;;
58756;SDS011;44527;47.460;19.016;2022-08-03T05:16:06;6.10;;;2.47;;
58756;SDS011;44527;47.460;19.016;2022-08-03T05:19:09;4.45;;;2.30;;
58756;SDS011;44527;47.460;19.016;2022-08-03T05:22:11;5.90;;;2.53;;
58756;SDS011;44527;47.460;19.016;2022-08-03T05:25:13;4.95;;;2.30;;
58756;SDS011;44527;47.460;19.016;2022-08-03T05:28:20;11.25;;;2.50;;
58756;SDS011;44527;47.460;19.016;2022-08-03T05:31:23;19.87;;;2.30;;
58756;SDS011;44527;47.460;19.016;2022-08-03T05:34:25;20.27;;;2.42;;
58756;SDS011;44527;47.460;19.016;2022-08-03T05:37:28;3.78;;;2.10;;
58756;SDS011;44527;47.460;19.016;2022-08-03T05:40:30;5.93;;;2.17;;
58756;SDS011;44527;47.460;19.016;2022-08-03T05:43:33;7.15;;;2.33;;
58756;SDS011;44527;47.460;19.016;2022-08-03T05:46:37;8.10;;;2.47;;
58756;SDS011;44527;47.460;19.016;2022-08-03T05:49:40;7.62;;;2.30;;
58756;SDS011;44527;47.460;19.016;2022-08-03T05:52:42;6.12;;;2.78;;
58756;SDS011;44527;47.460;19.016;2022-08-03T05:55:46;6.22;;;1.92;;
58756;SDS011;44527;47.460;19.016;2022-08-03T05:58:53;4.30;;;2.40;;
58756;SDS011;44527;47.460;19.016;2022-08-03T06:01:56;8.27;;;2.53;;
58756;SDS011;44527;47.460;19.016;2022-08-03T06:04:59;6.32;;;2.17;;
58756;SDS011;44527;47.460;19.016;2022-08-03T06:08:01;5.87;;;2.20;;
58756;SDS011;44527;47.460;19.016;2022-08-03T06:11:05;7.78;;;2.25;;
58756;SDS011;44527;47.460;19.016;2022-08-03T06:14:07;3.05;;;2.12;;
58756;SDS011;44527;47.460;19.016;2022-08-03T06:17:09;3.40;;;2.40;;
58756;SDS011;44527;47.460;19.016;2022-08-03T06:20:15;33.30;;;2.75;;
58756;SDS011;44527;47.460;19.016;2022-08-03T06:23:18;9.45;;;2.30;;
58756;SDS011;44527;47.460;19.016;2022-08-03T06:26:22;7.15;;;2.40;;
58756;SDS011;44527;47.460;19.016;2022-08-03T06:29:26;4.93;;;2.80;;
58756;SDS011;44527;47.460;19.016;2022-08-03T06:32:28;2.10;;;1.90;;
58756;SDS011;44527;47.460;19.016;2022-08-03T06:35:30;4.43;;;2.65;;
58756;SDS011;44527;47.460;19.016;2022-08-03T06:38:36;6.10;;;2.58;;
58756;SDS011;44527;47.460;19.016;2022-08-03T06:41:38;7.97;;;2.80;;
58756;SDS011;44527;47.460;19.016;2022-08-03T06:44:45;4.57;;;2.75;;
58756;SDS011;44527;47.460;19.016;2022-08-03T06:47:58;4.07;;;2.60;;
58756;SDS011;44527;47.460;19.016;2022-08-03T06:51:04;4.72;;;2.85;;
58756;SDS011;44527;47.460;19.016;2022-08-03T06:54:07;7.80;;;2.72;;
58756;SDS011;44527;47.460;19.016;2022-08-03T06:57:10;6.87;;;2.67;;
58756;SDS011;44527;47.460;19.016;2022-08-03T07:00:12;5.12;;;2.60;;
58756;SDS011;44527;47.460;19.016;2022-08-03T07:03:16;8.32;;;2.92;;
58756;SDS011;44527;47.460;19.016;2022-08-03T07:06:18;4.25;;;2.80;;
58756;SDS011;44527;47.460;19.016;2022-08-03T07:09:21;3.85;;;2.70;;
58756;SDS011;44527;47.460;19.016;2022-08-03T07:12:24;6.87;;;2.72;;
58756;SDS011;44527;47.460;19.016;2022-08-03T07:15:27;8.75;;;3.10;;
58756;SDS011;44527;47.460;19.016;2022-08-03T07:18:50;6.97;;;2.83;;
58756;SDS011;44527;47.460;19.016;2022-08-03T07:21:52;5.43;;;2.75;;
58756;SDS011;44527;47.460;19.016;2022-08-03T07:24:59;7.82;;;2.92;;
58756;SDS011;44527;47.460;19.016;2022-08-03T07:28:02;4.32;;;2.45;;
58756;SDS011;44527;47.460;19.016;2022-08-03T07:31:05;5.72;;;2.70;;
58756;SDS011;44527;47.460;19.016;2022-08-03T07:34:07;7.93;;;3.17;;
58756;SDS011;44527;47.460;19.016;2022-08-03T07:37:09;6.22;;;2.58;;
58756;SDS011;44527;47.460;19.016;2022-08-03T07:40:12;5.00;;;3.20;;
58756;SDS011;44527;47.460;19.016;2022-08-03T07:43:14;5.28;;;2.92;;
58756;SDS011;44527;47.460;19.016;2022-08-03T07:46:18;7.70;;;2.97;;
58756;SDS011;44527;47.460;19.016;2022-08-03T07:49:20;9.93;;;3.30;;
58756;SDS011;44527;47.460;19.016;2022-08-03T07:52:23;8.55;;;3.40;;
58756;SDS011;44527;47.460;19.016;2022-08-03T07:55:44;8.35;;;3.50;;
58756;SDS011;44527;47.460;19.016;2022-08-03T07:58:46;6.97;;;3.58;;
58756;SDS011;44527;47.460;19.016;2022-08-03T08:01:48;4.82;;;3.17;;
58756;SDS011;44527;47.460;19.016;2022-08-03T08:04:54;3.53;;;3.20;;
58756;SDS011;44527;47.460;19.016;2022-08-03T08:07:56;7.25;;;3.47;;
58756;SDS011;44527;47.460;19.016;2022-08-03T08:10:58;8.25;;;3.47;;
58756;SDS011;44527;47.460;19.016;2022-08-03T08:14:00;5.47;;;3.75;;
58756;SDS011;44527;47.460;19.016;2022-08-03T08:17:04;5.12;;;3.60;;
58756;SDS011;44527;47.460;19.016;2022-08-03T08:20:09;4.72;;;3.53;;
58756;SDS011;44527;47.460;19.016;2022-08-03T08:23:12;5.12;;;3.80;;
58756;SDS011;44527;47.460;19.016;2022-08-03T08:26:35;5.57;;;4.25;;
58756;SDS011;44527;47.460;19.016;2022-08-03T08:29:38;5.32;;;3.62;;
58756;SDS011;44527;47.460;19.016;2022-08-03T08:32:56;6.95;;;4.28;;
58756;SDS011;44527;47.460;19.016;2022-08-03T08:35:59;8.40;;;4.12;;
58756;SDS011;44527;47.460;19.016;2022-08-03T08:39:01;7.47;;;3.97;;
58756;SDS011;44527;47.460;19.016;2022-08-03T08:42:04;8.73;;;4.37;;
58756;SDS011;44527;47.460;19.016;2022-08-03T08:45:07;6.28;;;3.97;;
58756;SDS011;44527;47.460;19.016;2022-08-03T08:48:11;7.35;;;4.40;;
58756;SDS011;44527;47.460;19.016;2022-08-03T08:51:15;8.45;;;4.05;;
58756;SDS011;44527;47.460;19.016;2022-08-03T08:54:20;7.65;;;4.60;;
58756;SDS011;44527;47.460;19.016;2022-08-03T08:57:26;6.57;;;4.60;;
58756;SDS011;44527;47.460;19.016;2022-08-03T09:00:44;7.62;;;4.65;;
58756;SDS011;44527;47.460;19.016;2022-08-03T09:03:47;13.75;;;4.55;;
58756;SDS011;44527;47.460;19.016;2022-08-03T09:06:49;6.10;;;4.18;;
58756;SDS011;44527;47.460;19.016;2022-08-03T09:10:14;11.82;;;4.80;;
58756;SDS011;44527;47.460;19.016;2022-08-03T09:13:23;7.68;;;3.87;;
58756;SDS011;44527;47.460;19.016;2022-08-03T09:16:25;4.28;;;3.70;;
58756;SDS011;44527;47.460;19.016;2022-08-03T09:19:28;10.90;;;4.43;;
58756;SDS011;44527;47.460;19.016;2022-08-03T09:22:34;4.60;;;4.07;;
58756;SDS011;44527;47.460;19.016;2022-08-03T09:25:38;4.25;;;3.83;;
58756;SDS011;44527;47.460;19.016;2022-08-03T09:28:42;9.55;;;3.83;;
58756;SDS011;44527;47.460;19.016;2022-08-03T09:32:03;7.57;;;4.00;;
58756;SDS011;44527;47.460;19.016;2022-08-03T09:35:06;4.20;;;3.60;;
58756;SDS011;44527;47.460;19.016;2022-08-03T09:41:18;5.57;;;3.50;;
58756;SDS011;44527;47.460;19.016;2022-08-03T09:44:23;4.53;;;4.03;;
58756;SDS011;44527;47.460;19.016;2022-08-03T09:47:38;5.57;;;3.62;;
58756;SDS011;44527;47.460;19.016;2022-08-03T09:50:46;5.53;;;3.12;;
58756;SDS011;44527;47.460;19.016;2022-08-03T09:53:59;6.18;;;3.60;;
58756;SDS011;44527;47.460;19.016;2022-08-03T09:57:05;4.12;;;2.80;;
58756;SDS011;44527;47.460;19.016;2022-08-03T10:00:10;7.03;;;3.33;;
58756;SDS011;44527;47.460;19.016;2022-08-03T10:03:17;7.68;;;3.40;;
58756;SDS011;44527;47.460;19.016;2022-08-03T10:06:19;6.40;;;3.75;;
58756;SDS011;44527;47.460;19.016;2022-08-03T10:09:29;3.72;;;3.17;;
58756;SDS011;44527;47.460;19.016;2022-08-03T10:12:32;6.90;;;3.80;;
58756;SDS011;44527;47.460;19.016;2022-08-03T10:15:35;10.80;;;3.53;;
58756;SDS011;44527;47.460;19.016;2022-08-03T10:18:59;8.40;;;3.72;;
58756;SDS011;44527;47.460;19.016;2022-08-03T10:22:03;8.13;;;3.10;;
58756;SDS011;44527;47.460;19.016;2022-08-03T10:25:11;4.72;;;3.50;;
58756;SDS011;44527;47.460;19.016;2022-08-03T10:28:15;4.82;;;3.60;;
58756;SDS011;44527;47.460;19.016;2022-08-03T10:31:21;10.13;;;3.65;;
58756;SDS011;44527;47.460;19.016;2022-08-03T10:34:25;6.10;;;3.20;;
58756;SDS011;44527;47.460;19.016;2022-08-03T10:37:31;3.45;;;2.97;;
58756;SDS011;44527;47.460;19.016;2022-08-03T10:40:35;4.95;;;3.53;;
58756;SDS011;44527;47.460;19.016;2022-08-03T10:47:05;7.55;;;3.33;;
58756;SDS011;44527;47.460;19.016;2022-08-03T10:50:08;5.87;;;3.75;;
58756;SDS011;44527;47.460;19.016;2022-08-03T10:53:11;6.37;;;3.60;;
58756;SDS011;44527;47.460;19.016;2022-08-03T10:56:51;4.57;;;3.40;;
58756;SDS011;44527;47.460;19.016;2022-08-03T11:00:19;7.53;;;3.45;;
58756;SDS011;44527;47.460;19.016;2022-08-03T11:03:23;3.35;;;3.00;;
58756;SDS011;44527;47.460;19.016;2022-08-03T11:06:25;7.03;;;3.62;;
58756;SDS011;44527;47.460;19.016;2022-08-03T11:09:41;7.78;;;3.50;;
58756;SDS011;44527;47.460;19.016;2022-08-03T11:12:45;5.68;;;2.92;;
58756;SDS011;44527;47.460;19.016;2022-08-03T11:15:48;4.97;;;3.20;;
58756;SDS011;44527;47.460;19.016;2022-08-03T11:18:56;6.25;;;3.17;;
58756;SDS011;44527;47.460;19.016;2022-08-03T11:22:01;4.43;;;3.50;;
58756;SDS011;44527;47.460;19.016;2022-08-03T11:25:04;5.95;;;3.28;;
58756;SDS011;44527;47.460;19.016;2022-08-03T11:28:25;5.43;;;3.50;;
58756;SDS011;44527;47.460;19.016;2022-08-03T11:35:10;2.70;;;2.20;;
58756;SDS011;44527;47.460;19.016;2022-08-03T11:38:15;5.62;;;2.47;;
58756;SDS011;44527;47.460;19.016;2022-08-03T11:41:31;3.00;;;2.67;;
58756;SDS011;44527;47.460;19.016;2022-08-03T11:44:45;7.03;;;2.47;;
58756;SDS011;44527;47.460;19.016;2022-08-03T11:47:48;5.20;;;2.55;;
58756;SDS011;44527;47.460;19.016;2022-08-03T11:50:55;3.75;;;2.90;;
58756;SDS011;44527;47.460;19.016;2022-08-03T11:54:02;4.35;;;2.70;;
58756;SDS011;44527;47.460;19.016;2022-08-03T11:57:06;3.60;;;2.95;;
58756;SDS011;44527;47.460;19.016;2022-08-03T12:00:21;6.25;;;2.70;;
58756;SDS011;44527;47.460;19.016;2022-08-03T12:03:30;4.53;;;2.28;;
58756;SDS011;44527;47.460;19.016;2022-08-03T12:06:34;7.72;;;3.28;;
58756;SDS011;44527;47.460;19.016;2022-08-03T12:10:09;7.95;;;2.47;;
58756;SDS011;44527;47.460;19.016;2022-08-03T12:16:36;5.47;;;2.95;;
58756;SDS011;44527;47.460;19.016;2022-08-03T12:19:42;4.00;;;2.80;;
58756;SDS011;44527;47.460;19.016;2022-08-03T12:22:45;6.43;;;2.93;;
58756;SDS011;44527;47.460;19.016;2022-08-03T12:25:47;6.72;;;2.37;;
58756;SDS011;44527;47.460;19.016;2022-08-03T12:28:50;5.10;;;2.40;;
58756;SDS011;44527;47.460;19.016;2022-08-03T12:31:53;4.03;;;2.20;;
58756;SDS011;44527;47.460;19.016;2022-08-03T12:34:58;3.30;;;2.40;;
58756;SDS011;44527;47.460;19.016;2022-08-03T12:38:02;7.10;;;2.58;;
58756;SDS011;44527;47.460;19.016;2022-08-03T12:41:06;3.33;;;2.30;;
58756;SDS011;44527;47.460;19.016;2022-08-03T12:44:14;10.43;;;2.37;;
58756;SDS011;44527;47.460;19.016;2022-08-03T12:47:16;3.10;;;2.40;;
58756;SDS011;44527;47.460;19.016;2022-08-03T12:53:35;3.87;;;2.65;;
58756;SDS011;44527;47.460;19.016;2022-08-03T12:56:55;5.57;;;2.62;;
58756;SDS011;44527;47.460;19.016;2022-08-03T12:59:59;4.03;;;2.40;;
58756;SDS011;44527;47.460;19.016;2022-08-03T13:03:37;12.40;;;2.50;;
58756;SDS011;44527;47.460;19.016;2022-08-03T13:07:01;3.37;;;2.30;;
58756;SDS011;44527;47.460;19.016;2022-08-03T13:10:31;4.18;;;2.60;;
58756;SDS011;44527;47.460;19.016;2022-08-03T13:13:37;4.10;;;2.55;;
58756;SDS011;44527;47.460;19.016;2022-08-03T13:16:40;3.25;;;2.35;;
58756;SDS011;44527;47.460;19.016;2022-08-03T13:19:43;3.42;;;2.28;;
58756;SDS011;44527;47.460;19.016;2022-08-03T13:22:46;3.72;;;2.60;;
58756;SDS011;44527;47.460;19.016;2022-08-03T13:25:49;7.70;;;2.75;;
58756;SDS011;44527;47.460;19.016;2022-08-03T13:28:57;3.00;;;2.47;;
58756;SDS011;44527;47.460;19.016;2022-08-03T13:31:59;3.92;;;2.60;;
58756;SDS011;44527;47.460;19.016;2022-08-03T13:35:03;3.12;;;2.70;;
58756;SDS011;44527;47.460;19.016;2022-08-03T13:38:06;6.85;;;2.58;;
58756;SDS011;44527;47.460;19.016;2022-08-03T13:41:08;8.38;;;2.83;;
58756;SDS011;44527;47.460;19.016;2022-08-03T13:44:12;7.28;;;2.85;;
58756;SDS011;44527;47.460;19.016;2022-08-03T13:47:30;4.78;;;2.70;;
58756;SDS011;44527;47.460;19.016;2022-08-03T13:50:33;16.85;;;3.40;;
58756;SDS011;44527;47.460;19.016;2022-08-03T13:53:40;4.12;;;2.72;;
58756;SDS011;44527;47.460;19.016;2022-08-03T13:56:43;10.20;;;3.10;;
58756;SDS011;44527;47.460;19.016;2022-08-03T13:59:50;7.37;;;2.62;;
58756;SDS011;44527;47.460;19.016;2022-08-03T14:02:53;6.18;;;2.78;;
58756;SDS011;44527;47.460;19.016;2022-08-03T14:06:10;3.70;;;2.80;;
58756;SDS011;44527;47.460;19.016;2022-08-03T14:09:13;8.75;;;3.10;;
58756;SDS011;44527;47.460;19.016;2022-08-03T14:12:16;5.22;;;2.53;;
58756;SDS011;44527;47.460;19.016;2022-08-03T14:15:18;4.72;;;3.10;;
58756;SDS011;44527;47.460;19.016;2022-08-03T14:18:21;3.95;;;2.92;;
58756;SDS011;44527;47.460;19.016;2022-08-03T14:21:34;4.90;;;2.80;;
58756;SDS011;44527;47.460;19.016;2022-08-03T14:24:37;3.95;;;2.80;;
58756;SDS011;44527;47.460;19.016;2022-08-03T14:27:39;3.60;;;2.87;;
58756;SDS011;44527;47.460;19.016;2022-08-03T14:30:41;5.20;;;2.90;;
58756;SDS011;44527;47.460;19.016;2022-08-03T14:33:43;5.37;;;3.10;;
58756;SDS011;44527;47.460;19.016;2022-08-03T14:36:46;3.45;;;2.60;;
58756;SDS011;44527;47.460;19.016;2022-08-03T14:39:49;7.18;;;2.85;;
58756;SDS011;44527;47.460;19.016;2022-08-03T14:43:07;4.20;;;3.00;;
58756;SDS011;44527;47.460;19.016;2022-08-03T14:46:09;7.55;;;2.72;;
58756;SDS011;44527;47.460;19.016;2022-08-03T14:49:11;5.32;;;2.50;;
58756;SDS011;44527;47.460;19.016;2022-08-03T14:52:34;4.90;;;2.83;;
58756;SDS011;44527;47.460;19.016;2022-08-03T14:55:37;8.73;;;2.75;;
58756;SDS011;44527;47.460;19.016;2022-08-03T14:58:52;8.20;;;2.62;;
58756;SDS011;44527;47.460;19.016;2022-08-03T15:01:54;4.35;;;2.80;;
58756;SDS011;44527;47.460;19.016;2022-08-03T15:05:07;8.45;;;2.78;;
58756;SDS011;44527;47.460;19.016;2022-08-03T15:08:12;4.00;;;2.83;;
58756;SDS011;44527;47.460;19.016;2022-08-03T15:11:14;4.20;;;2.78;;
58756;SDS011;44527;47.460;19.016;2022-08-03T15:14:16;7.95;;;2.87;;
58756;SDS011;44527;47.460;19.016;2022-08-03T15:17:23;6.10;;;2.80;;
58756;SDS011;44527;47.460;19.016;2022-08-03T15:20:25;4.62;;;2.80;;
58756;SDS011;44527;47.460;19.016;2022-08-03T15:23:44;4.60;;;3.00;;
58756;SDS011;44527;47.460;19.016;2022-08-03T15:26:46;3.10;;;2.67;;
58756;SDS011;44527;47.460;19.016;2022-08-03T15:29:49;13.27;;;2.97;;
58756;SDS011;44527;47.460;19.016;2022-08-03T15:33:10;3.37;;;2.80;;
58756;SDS011;44527;47.460;19.016;2022-08-03T15:36:13;4.68;;;2.70;;
58756;SDS011;44527;47.460;19.016;2022-08-03T15:39:15;8.30;;;2.87;;
58756;SDS011;44527;47.460;19.016;2022-08-03T15:42:17;10.70;;;2.87;;
58756;SDS011;44527;47.460;19.016;2022-08-03T15:45:22;4.00;;;3.00;;
58756;SDS011;44527;47.460;19.016;2022-08-03T15:48:24;6.75;;;3.15;;
58756;SDS011;44527;47.460;19.016;2022-08-03T15:51:27;3.42;;;2.80;;
58756;SDS011;44527;47.460;19.016;2022-08-03T15:54:30;5.37;;;2.83;;
58756;SDS011;44527;47.460;19.016;2022-08-03T15:57:33;5.68;;;2.92;;
58756;SDS011;44527;47.460;19.016;2022-08-03T16:00:55;6.97;;;2.90;;
58756;SDS011;44527;47.460;19.016;2022-08-03T16:03:59;9.20;;;3.12;;
58756;SDS011;44527;47.460;19.016;2022-08-03T16:07:01;3.85;;;2.33;;
58756;SDS011;44527;47.460;19.016;2022-08-03T16:10:04;6.28;;;2.83;;
58756;SDS011;44527;47.460;19.016;2022-08-03T16:13:07;4.57;;;2.60;;
58756;SDS011;44527;47.460;19.016;2022-08-03T16:16:09;3.70;;;2.70;;
58756;SDS011;44527;47.460;19.016;2022-08-03T16:19:12;3.08;;;2.60;;
58756;SDS011;44527;47.460;19.016;2022-08-03T16:22:14;7.97;;;2.78;;
58756;SDS011;44527;47.460;19.016;2022-08-03T16:25:20;8.60;;;2.70;;
58756;SDS011;44527;47.460;19.016;2022-08-03T16:28:23;4.40;;;2.50;;
58756;SDS011;44527;47.460;19.016;2022-08-03T16:31:25;5.00;;;2.83;;
58756;SDS011;44527;47.460;19.016;2022-08-03T16:34:29;3.65;;;2.78;;
58756;SDS011;44527;47.460;19.016;2022-08-03T16:37:32;7.12;;;2.87;;
58756;SDS011;44527;47.460;19.016;2022-08-03T16:40:40;3.90;;;2.80;;
58756;SDS011;44527;47.460;19.016;2022-08-03T16:43:42;12.27;;;2.75;;
58756;SDS011;44527;47.460;19.016;2022-08-03T16:46:45;4.75;;;2.50;;
58756;SDS011;44527;47.460;19.016;2022-08-03T16:49:48;7.60;;;2.67;;
58756;SDS011;44527;47.460;19.016;2022-08-03T16:52:57;5.95;;;2.40;;
58756;SDS011;44527;47.460;19.016;2022-08-03T16:55:59;4.57;;;2.53;;
58756;SDS011;44527;47.460;19.016;2022-08-03T16:59:02;3.90;;;2.40;;
58756;SDS011;44527;47.460;19.016;2022-08-03T17:02:07;4.85;;;2.40;;
58756;SDS011;44527;47.460;19.016;2022-08-03T17:05:27;4.65;;;2.58;;
58756;SDS011;44527;47.460;19.016;2022-08-03T17:08:48;5.22;;;2.62;;
58756;SDS011;44527;47.460;19.016;2022-08-03T17:11:56;5.93;;;2.78;;
58756;SDS011;44527;47.460;19.016;2022-08-03T17:15:01;4.82;;;2.53;;
58756;SDS011;44527;47.460;19.016;2022-08-03T17:18:06;5.05;;;2.80;;
58756;SDS011;44527;47.460;19.016;2022-08-03T17:21:09;3.35;;;2.85;;
58756;SDS011;44527;47.460;19.016;2022-08-03T17:24:13;6.72;;;2.62;;
58756;SDS011;44527;47.460;19.016;2022-08-03T17:27:25;6.20;;;2.65;;
58756;SDS011;44527;47.460;19.016;2022-08-03T17:30:49;5.65;;;2.60;;
58756;SDS011;44527;47.460;19.016;2022-08-03T17:34:30;3.70;;;2.90;;
58756;SDS011;44527;47.460;19.016;2022-08-03T17:37:34;3.53;;;2.95;;
58756;SDS011;44527;47.460;19.016;2022-08-03T17:40:56;5.87;;;2.92;;
58756;SDS011;44527;47.460;19.016;2022-08-03T17:44:00;3.60;;;2.72;;
58756;SDS011;44527;47.460;19.016;2022-08-03T17:47:22;6.53;;;3.22;;
58756;SDS011;44527;47.460;19.016;2022-08-03T17:50:44;5.78;;;3.37;;
58756;SDS011;44527;47.460;19.016;2022-08-03T17:54:07;7.62;;;3.20;;
58756;SDS011;44527;47.460;19.016;2022-08-03T17:57:30;4.00;;;3.08;;
58756;SDS011;44527;47.460;19.016;2022-08-03T18:01:01;5.57;;;2.92;;
58756;SDS011;44527;47.460;19.016;2022-08-03T18:04:45;6.25;;;3.37;;
58756;SDS011;44527;47.460;19.016;2022-08-03T18:07:57;6.37;;;3.08;;
58756;SDS011;44527;47.460;19.016;2022-08-03T18:11:05;3.85;;;2.90;;
58756;SDS011;44527;47.460;19.016;2022-08-03T18:17:31;4.68;;;2.97;;
58756;SDS011;44527;47.460;19.016;2022-08-03T18:20:54;6.43;;;3.17;;
58756;SDS011;44527;47.460;19.016;2022-08-03T18:23:59;6.28;;;3.33;;
58756;SDS011;44527;47.460;19.016;2022-08-03T18:27:03;4.75;;;3.10;;
58756;SDS011;44527;47.460;19.016;2022-08-03T18:30:09;5.53;;;3.30;;
58756;SDS011;44527;47.460;19.016;2022-08-03T18:33:13;6.18;;;3.00;;
58756;SDS011;44527;47.460;19.016;2022-08-03T18:36:37;4.53;;;3.08;;
58756;SDS011;44527;47.460;19.016;2022-08-03T18:39:42;5.53;;;3.40;;
58756;SDS011;44527;47.460;19.016;2022-08-03T18:42:53;4.93;;;3.47;;
58756;SDS011;44527;47.460;19.016;2022-08-03T18:45:56;4.85;;;3.28;;
58756;SDS011;44527;47.460;19.016;2022-08-03T18:49:09;5.55;;;3.45;;
58756;SDS011;44527;47.460;19.016;2022-08-03T18:55:50;5.20;;;3.47;;
58756;SDS011;44527;47.460;19.016;2022-08-03T18:59:03;5.62;;;3.00;;
58756;SDS011;44527;47.460;19.016;2022-08-03T19:02:27;6.43;;;3.05;;